.
WxDataArchive / Data Records for 2012-06-30
2012-06-29 June 2012 2012-07-01

Data Records for Saturday, 30 June 2012

Time	Temp	Chill	HIndex	Humid	Dewpt	 Wind 	HiWind	WindDir	Rain 	Barom 
-----	----	-----	------	-----	-----	------	------	-------	-----	----- 
00:00	65.5	65.5	65.5	90	62.5	0	0	---	0.00	29.822 
00:05	65.3	65.3	65.3	90	62.3	0	0	---	0.00	29.822 
00:10	65.3	65.3	65.3	90	62.3	0	0	---	0.00	29.822 
00:15	65.3	65.3	65.3	91	62.6	0	0	---	0.00	29.825 
00:20	65.3	65.3	65.3	91	62.6	0	0	---	0.00	29.825 
00:25	65.3	65.3	65.3	91	62.6	0	0	---	0.00	29.825 
00:30	65.3	65.3	65.3	91	62.6	0	0	---	0.00	29.826 
00:35	65.3	65.3	65.3	91	62.6	0	0	---	0.00	29.826 
00:40	65.3	65.3	65.3	92	62.9	0	0	---	0.00	29.826 
00:45	65.5	65.5	65.5	92	63.1	0	0	---	0.00	29.820 
00:50	65.3	65.3	65.3	92	62.9	0	0	---	0.00	29.820 
00:55	65.5	65.5	65.5	92	63.1	0	0	---	0.00	29.820 
01:00	65.6	65.6	65.6	92	63.2	0	0	---	0.00	29.815 
01:05	65.6	65.6	65.6	92	63.2	0	0	---	0.00	29.815 
01:10	66.0	66.0	66.0	93	63.9	0	0	---	0.00	29.815 
01:15	66.1	66.1	66.1	93	64.0	0	0	---	0.00	29.809 
01:20	66.3	66.3	66.3	92	63.9	0	0	---	0.00	29.809 
01:25	66.3	66.3	66.3	92	63.9	0	0	---	0.00	29.809 
01:30	66.4	66.4	66.4	92	64.0	0	0	---	0.00	29.813 
01:35	66.4	66.4	66.4	92	64.0	0	0	---	0.00	29.813 
01:40	66.6	66.6	66.6	92	64.2	0	0	---	0.00	29.813 
01:45	66.6	66.6	66.6	92	64.2	0	0	---	0.00	29.803 
01:50	66.4	66.4	66.4	92	64.0	0	0	---	0.00	29.803 
01:55	66.4	66.4	66.4	92	64.0	0	0	---	0.00	29.803 
02:00	66.4	66.4	66.4	91	63.7	0	0	---	0.00	29.800 
02:05	66.4	66.4	66.4	92	64.0	0	0	---	0.00	29.800 
02:10	66.4	66.4	66.4	91	63.7	0	0	---	0.00	29.800 
02:15	66.4	66.4	66.4	91	63.7	0	0	---	0.00	29.798 
02:20	66.4	66.4	66.4	91	63.7	0	0	---	0.00	29.798 
02:25	66.6	66.6	66.6	91	63.9	0	0	---	0.00	29.798 
02:30	66.8	66.8	66.8	91	64.1	0	1	292	0.00	29.799 
02:35	66.9	66.9	66.9	91	64.2	0	1	292	0.00	29.799 
02:40	67.1	67.1	67.1	91	64.4	0	1	292	0.00	29.799 
02:45	67.3	67.3	67.3	91	64.6	1	3	292	0.00	29.817 
02:50	67.6	67.6	67.6	90	64.6	1	3	292	0.00	29.817 
02:55	67.8	67.8	67.8	89	64.4	0	1	292	0.00	29.817 
03:00	68.1	68.1	68.1	88	64.4	0	1	292	0.00	29.815 
03:05	68.3	68.3	68.3	88	64.6	1	3	292	0.00	29.815 
03:10	68.9	68.9	68.9	86	64.5	2	4	292	0.00	29.815 
03:15	69.1	69.1	69.1	85	64.4	2	3	292	0.00	29.872 
03:20	69.3	69.3	69.3	83	63.9	2	4	292	0.00	29.872 
03:25	69.4	69.4	69.4	83	64.0	1	4	315	0.00	29.872 
03:30	69.8	69.8	69.8	82	64.0	2	4	315	0.00	29.864 
03:35	70.1	70.1	70.1	81	64.0	2	5	270	0.00	29.864 
03:40	70.4	70.4	70.4	81	64.3	2	5	315	0.00	29.864 
03:45	70.4	70.4	70.4	82	64.6	2	4	292	0.00	29.834 
03:50	70.1	70.1	70.1	83	64.7	0	2	292	0.01	29.834 
03:55	69.8	69.8	69.8	85	65.1	1	3	315	0.00	29.834 
04:00	69.6	69.6	69.6	86	65.2	1	3	315	0.00	29.772 
04:05	69.4	69.4	69.4	87	65.4	1	3	315	0.00	29.772 
04:10	69.4	69.4	69.4	86	65.0	0	2	315	0.00	29.772 
04:15	69.6	69.6	69.6	86	65.2	1	2	315	0.00	29.779 
04:20	69.8	69.8	69.8	85	65.1	2	4	315	0.00	29.779 
04:25	69.9	69.9	69.9	85	65.2	3	5	315	0.00	29.779 
04:30	70.1	70.1	70.1	84	65.0	3	5	270	0.00	29.825 
04:35	70.3	70.3	70.3	84	65.2	2	4	270	0.00	29.825 
04:40	70.3	70.3	70.3	84	65.2	1	3	270	0.00	29.825 
04:45	70.3	70.3	70.3	84	65.2	2	4	292	0.01	29.828 
04:50	70.1	70.1	70.1	85	65.4	1	4	292	0.00	29.828 
04:55	69.9	69.9	69.9	86	65.5	1	4	292	0.00	29.828 
05:00	69.8	69.8	69.8	87	65.7	2	5	270	0.00	29.864 
05:05	69.6	69.6	69.6	88	65.9	1	3	270	0.00	29.864 
05:10	69.3	69.3	69.3	88	65.6	0	2	338	0.01	29.864 
05:15	68.9	68.9	68.9	88	65.2	0	3	338	0.00	29.846 
05:20	68.8	68.8	68.8	88	65.1	0	1	338	0.00	29.846 
05:25	68.4	68.4	68.4	89	65.0	0	1	338	0.01	29.846 
05:30	68.3	68.3	68.3	89	64.9	0	1	338	0.00	29.844 
05:35	68.1	68.1	68.1	90	65.0	0	1	338	0.01	29.844 
05:40	68.1	68.1	68.1	91	65.4	0	1	338	0.00	29.844 
05:45	67.9	67.9	67.9	91	65.2	0	1	338	0.00	29.862 
05:50	67.8	67.8	67.8	91	65.1	0	1	338	0.01	29.862 
05:55	67.8	67.8	67.8	91	65.1	0	2	338	0.00	29.862 
06:00	67.6	67.6	67.6	92	65.2	0	1	338	0.00	29.848 
06:05	67.4	67.4	67.4	92	65.0	0	2	338	0.01	29.848 
06:10	67.4	67.4	67.4	92	65.0	0	1	315	0.00	29.848 
06:15	67.3	67.3	67.3	92	64.9	0	4	248	0.00	29.827 
06:20	67.3	67.3	67.3	92	64.9	0	1	248	0.01	29.827 
06:25	67.1	67.1	67.1	92	64.7	0	1	248	0.00	29.827 
06:30	67.1	67.1	67.1	93	65.0	0	1	248	0.00	29.810 
06:35	67.1	67.1	67.1	93	65.0	0	1	248	0.01	29.810 
06:40	67.1	67.1	67.1	93	65.0	0	1	248	0.00	29.810 
06:45	66.9	66.9	66.9	93	64.8	0	2	248	0.00	29.798 
06:50	66.9	66.9	66.9	93	64.8	0	2	248	0.00	29.798 
06:55	66.9	66.9	66.9	93	64.8	0	2	248	0.01	29.798 
07:00	66.9	66.9	66.9	93	64.8	0	2	248	0.00	29.796 
07:05	66.9	66.9	66.9	93	64.8	0	2	248	0.00	29.796 
07:10	66.9	66.9	66.9	93	64.8	0	1	248	0.00	29.796 
07:15	66.9	66.9	66.9	93	64.8	0	1	248	0.01	29.798 
07:20	66.9	66.9	66.9	93	64.8	0	2	248	0.00	29.798 
07:25	66.9	66.9	66.9	93	64.8	0	1	0	0.00	29.798 
07:30	66.9	66.9	66.9	94	65.1	0	1	0	0.00	29.801 
07:35	66.9	66.9	66.9	94	65.1	0	0	---	0.00	29.801 
07:40	66.9	66.9	66.9	94	65.1	0	0	---	0.00	29.801 
07:45	66.9	66.9	66.9	94	65.1	0	1	0	0.01	29.796 
07:50	66.9	66.9	66.9	94	65.1	0	0	---	0.00	29.796 
07:55	66.9	66.9	66.9	94	65.1	0	0	---	0.00	29.796 
08:00	67.1	67.1	67.1	94	65.3	0	1	0	0.00	29.795 
08:05	67.1	67.1	67.1	94	65.3	0	0	---	0.00	29.795 
08:10	67.1	67.1	67.1	94	65.3	0	0	---	0.00	29.795 
08:15	67.3	67.3	67.3	94	65.5	0	0	---	0.01	29.799 
08:20	67.4	67.4	67.4	94	65.6	0	0	---	0.00	29.799 
08:25	67.6	67.6	67.6	94	65.8	0	1	0	0.00	29.799 
08:30	67.8	67.8	67.8	94	66.0	0	1	0	0.00	29.804 
08:35	67.9	67.9	67.9	94	66.1	0	1	0	0.00	29.804 
08:40	67.9	67.9	67.9	94	66.1	0	1	0	0.00	29.804 
08:45	68.1	68.1	68.1	94	66.3	0	0	---	0.00	29.798 
08:50	68.3	68.3	68.3	94	66.5	0	1	0	0.01	29.798 
08:55	68.4	68.4	68.4	94	66.6	0	1	0	0.00	29.798 
09:00	68.6	68.6	68.6	94	66.8	0	1	0	0.00	29.800 
09:05	68.9	68.9	68.9	94	67.1	0	2	0	0.00	29.800 
09:10	69.1	69.1	69.1	94	67.3	0	1	0	0.00	29.800 
09:15	69.1	69.1	69.1	93	67.0	0	2	0	0.00	29.811 
09:20	69.8	69.8	69.8	93	67.7	0	1	0	0.00	29.811 
09:25	70.4	70.4	70.4	93	68.3	1	2	0	0.00	29.811 
09:30	70.9	70.9	70.9	92	68.5	1	3	0	0.00	29.809 
09:35	71.6	71.6	71.6	90	68.5	1	3	0	0.01	29.809 
09:40	72.1	72.1	72.1	87	68.0	1	3	270	0.00	29.809 
09:45	72.8	72.8	72.8	85	68.0	1	3	270	0.00	29.812 
09:50	73.3	73.3	73.3	82	67.5	1	3	270	0.00	29.812 
09:55	73.9	73.9	73.9	80	67.3	2	4	270	0.00	29.812 
10:00	74.7	74.7	74.7	79	67.7	1	2	270	0.00	29.814 
10:05	75.4	75.4	76.4	77	67.7	1	3	270	0.00	29.814 
10:10	76.0	76.0	77.5	72	66.3	2	5	270	0.00	29.814 
10:15	76.7	76.7	78.4	72	67.0	1	3	270	0.00	29.819 
10:20	77.4	77.4	79.2	69	66.4	2	3	270	0.00	29.819 
10:25	78.1	78.1	80.0	67	66.2	2	3	270	0.01	29.819 
10:30	78.8	78.8	80.9	66	66.5	2	4	292	0.00	29.819 
10:35	79.4	79.4	81.6	66	67.0	2	3	292	0.00	29.819 
10:40	79.9	79.9	82.1	64	66.6	2	5	292	0.00	29.819 
10:45	80.5	80.5	82.7	62	66.3	1	4	315	0.00	29.815 
10:50	81.1	81.1	83.3	61	66.4	2	4	315	0.00	29.815 
10:55	81.4	81.4	83.4	59	65.7	3	5	292	0.00	29.815 
11:00	81.6	81.6	83.2	56	64.4	3	5	315	0.00	29.818 
11:05	82.0	82.0	83.9	57	65.2	2	5	315	0.00	29.818 
11:10	82.2	82.2	83.8	55	64.4	2	4	292	0.00	29.818 
11:15	82.6	82.6	84.3	55	64.8	2	4	270	0.01	29.821 
11:20	82.6	82.6	84.1	54	64.2	3	5	315	0.00	29.821 
11:25	82.6	82.6	84.0	53	63.7	3	5	315	0.00	29.821 
11:30	82.4	82.4	83.9	54	64.1	3	5	315	0.00	29.823 
11:35	82.8	82.8	84.4	54	64.4	2	6	292	0.00	29.823 
11:40	83.2	83.2	84.5	52	63.7	2	5	315	0.00	29.823 
11:45	83.4	83.4	84.6	51	63.3	2	5	270	0.00	29.823 
11:50	83.8	83.8	84.7	49	62.6	2	4	292	0.00	29.823 
11:55	84.0	84.0	85.1	50	63.3	2	4	270	0.00	29.823 
12:00	84.3	84.3	85.3	49	63.0	2	4	315	0.00	29.823 
12:05	84.7	84.7	86.0	50	64.0	1	3	270	0.00	29.823 
12:10	85.3	85.3	86.9	50	64.5	2	4	270	0.00	29.823 
12:15	85.5	85.5	85.9	45	61.7	3	7	270	0.00	29.820 
12:20	85.7	85.7	86.9	48	63.7	2	5	270	0.00	29.820 
12:25	86.1	86.1	87.5	48	64.1	2	4	270	0.00	29.820 
12:30	86.3	86.3	87.2	46	63.0	2	4	270	0.00	29.820 
12:35	86.5	86.5	87.0	44	62.0	2	5	270	0.00	29.820 
12:40	86.5	86.5	87.2	45	62.6	3	5	270	0.00	29.820 
12:45	87.0	87.0	88.5	47	64.3	2	5	270	0.00	29.821 
12:50	87.0	87.0	87.6	44	62.4	2	5	270	0.00	29.821 
12:55	87.0	87.0	87.4	43	61.8	2	6	292	0.00	29.821 
13:00	87.2	87.2	87.9	44	62.6	3	6	270	0.00	29.821 
13:05	87.4	87.4	87.9	43	62.1	2	5	270	0.00	29.821 
13:10	87.6	87.6	88.5	44	63.0	2	4	270	0.00	29.821 
14:05	88.2	88.2	90.3	47	65.4	2	5	270	0.00	29.819 
14:10	88.4	88.4	90.6	47	65.6	2	5	292	0.00	29.819 
14:15	88.4	88.4	90.3	46	64.9	3	5	270	0.00	29.819 
14:20	88.4	88.4	90.0	45	64.3	2	4	270	0.00	29.819 
14:25	88.4	88.4	90.6	47	65.6	3	5	270	0.00	29.819 
14:30	88.6	88.6	90.6	46	65.1	1	3	270	0.00	29.815 
14:35	88.4	88.4	90.3	46	64.9	2	5	292	0.00	29.815 
14:40	88.2	88.2	90.0	46	64.8	1	4	315	0.00	29.815 
14:45	88.6	88.6	90.3	45	64.5	3	5	270	0.00	29.811 
14:50	88.4	88.4	90.3	46	64.9	1	4	315	0.00	29.811 
14:55	88.6	88.6	90.6	46	65.1	2	4	315	0.00	29.811 
15:00	88.6	88.6	90.3	45	64.5	2	5	270	0.00	29.803 
15:05	88.6	88.6	90.6	46	65.1	1	4	292	0.00	29.803 
15:10	88.4	88.4	90.6	47	65.6	1	4	292	0.00	29.803 
15:15	88.8	88.8	90.9	46	65.3	2	5	292	0.00	29.801 
15:20	89.5	89.5	91.0	43	64.0	2	5	338	0.00	29.801 
15:25	89.9	89.9	91.6	43	64.4	2	4	270	0.00	29.801 
15:30	89.9	89.9	91.2	42	63.7	2	4	270	0.00	29.794 
15:35	90.1	90.1	91.5	42	63.9	1	3	270	0.00	29.794 
15:40	90.3	90.3	90.8	39	61.9	2	6	270	0.00	29.794 
15:45	89.9	89.9	91.2	42	63.7	2	5	292	0.00	29.794 
15:50	89.0	89.0	90.2	43	63.6	1	2	292	0.00	29.794 
15:55	88.8	88.8	89.9	43	63.4	2	3	292	0.00	29.794 
16:00	88.8	88.8	90.2	44	64.0	0	2	270	0.00	29.785 
16:05	89.0	89.0	90.5	44	64.2	0	1	270	0.00	29.785 
16:10	89.0	89.0	90.2	43	63.6	1	2	270	0.00	29.785 
16:15	88.6	88.6	89.6	43	63.2	1	3	270	0.00	29.785 
16:20	88.4	88.4	89.6	44	63.7	1	3	292	0.00	29.785 
16:25	88.8	88.8	90.2	44	64.0	1	4	292	0.00	29.785 
16:30	89.5	89.5	91.3	44	64.7	1	2	292	0.00	29.789 
16:35	89.3	89.3	90.6	43	63.8	1	4	292	0.00	29.789 
16:40	89.0	89.0	90.5	44	64.2	1	4	292	0.00	29.789 
16:45	88.8	88.8	90.6	45	64.7	1	2	292	0.00	29.797 
16:50	88.8	88.8	90.6	45	64.7	1	4	292	0.00	29.797 
16:55	88.6	88.6	90.3	45	64.5	2	5	270	0.00	29.797 
17:00	88.2	88.2	90.0	46	64.8	2	4	270	0.00	29.798 
17:05	88.2	88.2	90.0	46	64.8	2	4	270	0.00	29.798 
17:10	88.2	88.2	90.0	46	64.8	1	3	270	0.00	29.798 
17:15	88.2	88.2	90.0	46	64.8	2	4	270	0.00	29.802 
17:20	87.8	87.8	89.7	47	65.0	2	4	270	0.00	29.802 
17:25	87.6	87.6	89.7	48	65.4	2	4	270	0.00	29.802 
17:30	87.8	87.8	90.0	48	65.6	1	3	270	0.00	29.815 
17:35	88.0	88.0	90.3	48	65.8	2	4	270	0.00	29.815 
17:40	88.2	88.2	90.3	47	65.4	2	6	270	0.00	29.815 
17:45	88.0	88.0	90.3	48	65.8	2	5	292	0.00	29.813 
17:50	87.8	87.8	90.0	48	65.6	2	4	270	0.00	29.813 
17:55	87.8	87.8	90.0	48	65.6	1	3	270	0.00	29.813 
18:00	87.6	87.6	90.0	49	66.0	2	6	270	0.00	29.809 
18:05	87.2	87.2	89.7	50	66.3	1	4	270	0.00	29.809 
18:10	86.7	86.7	89.9	53	67.5	1	3	270	0.00	29.809 
18:15	86.5	86.5	90.3	55	68.4	1	3	270	0.00	29.809 
18:20	86.1	86.1	89.2	54	67.5	1	4	270	0.00	29.809 
18:25	85.9	85.9	88.9	54	67.3	1	4	270	0.00	29.809 
18:30	85.9	85.9	89.2	55	67.8	1	4	270	0.00	29.807 
18:35	86.1	86.1	89.6	55	68.0	1	3	270	0.00	29.807 
18:40	86.1	86.1	89.6	55	68.0	2	3	270	0.00	29.807 
18:45	86.1	86.1	89.6	55	68.0	1	3	270	0.00	29.803 
18:50	86.3	86.3	89.9	55	68.2	1	4	270	0.00	29.803 
18:55	86.3	86.3	89.9	55	68.2	2	4	270	0.00	29.803 
19:00	86.5	86.5	90.6	56	68.9	1	4	315	0.00	29.803 
19:05	86.3	86.3	90.2	56	68.7	2	4	292	0.00	29.803 
19:10	86.3	86.3	90.6	57	69.2	1	4	292	0.00	29.803 
19:15	86.1	86.1	89.9	56	68.5	2	4	292	0.00	29.803 
19:20	85.9	85.9	89.6	56	68.3	1	3	270	0.00	29.803 
19:25	85.7	85.7	89.5	57	68.7	1	4	270	0.00	29.803 
19:30	85.5	85.5	89.2	57	68.5	1	3	270	0.00	29.803 
19:35	85.3	85.3	89.2	58	68.8	1	2	270	0.00	29.803 
19:40	84.9	84.9	88.5	58	68.4	1	3	270	0.00	29.803 
19:45	84.7	84.7	88.1	58	68.3	2	3	270	0.00	29.806 
19:50	84.5	84.5	87.3	56	67.0	1	3	270	0.00	29.806 
19:55	84.3	84.3	87.0	56	66.9	1	3	270	0.00	29.806 
20:00	84.1	84.1	86.7	56	66.7	1	3	270	0.00	29.812 
20:05	84.0	84.0	86.7	57	67.1	1	4	270	0.00	29.812 
20:10	84.0	84.0	86.7	57	67.1	1	2	270	0.00	29.812 
20:15	84.0	84.0	87.0	58	67.6	1	2	270	0.00	29.814 
20:20	84.0	84.0	87.0	58	67.6	0	2	270	0.00	29.814 
20:25	83.8	83.8	86.9	59	67.9	1	3	270	0.00	29.814 
20:30	83.8	83.8	87.2	60	68.4	1	3	270	0.00	29.817 
20:35	83.8	83.8	87.2	60	68.4	1	2	270	0.00	29.817 
20:40	83.6	83.6	87.1	61	68.7	1	2	270	0.00	29.817 
20:45	83.4	83.4	86.8	61	68.5	0	2	270	0.00	29.820 
20:50	83.2	83.2	86.5	61	68.3	1	3	270	0.00	29.820 
20:55	83.2	83.2	86.5	61	68.3	0	1	270	0.00	29.820 
21:00	82.8	82.8	85.8	61	67.9	1	3	270	0.00	29.822 
21:05	82.8	82.8	86.1	62	68.4	1	3	270	0.00	29.822 
21:10	82.6	82.6	85.7	62	68.2	1	3	270	0.00	29.822 
21:15	82.4	82.4	85.4	62	68.0	0	1	270	0.00	29.825 
21:20	82.2	82.2	85.3	63	68.3	0	1	270	0.00	29.825 
21:25	81.8	81.8	84.7	63	67.9	0	1	270	0.00	29.825 
21:30	81.6	81.6	84.6	64	68.2	0	1	270	0.00	29.829 
21:35	81.4	81.4	84.3	64	68.0	0	1	270	0.00	29.829 
21:40	81.2	81.2	84.1	65	68.3	0	2	270	0.00	29.829 
21:45	81.1	81.1	84.0	65	68.2	0	2	270	0.00	29.832 
21:50	80.9	80.9	83.7	65	68.0	0	1	270	0.00	29.832 
21:55	80.7	80.7	83.4	65	67.8	0	1	270	0.00	29.832 
22:00	80.5	80.5	83.2	66	68.1	0	1	270	0.00	29.831 
22:05	80.5	80.5	83.2	66	68.1	0	1	270	0.00	29.831 
22:10	80.3	80.3	83.0	67	68.3	0	1	270	0.00	29.831 
22:15	80.1	80.1	82.7	67	68.1	0	1	270	0.00	29.827 
22:20	79.9	79.9	82.6	68	68.4	0	1	270	0.00	29.827 
22:25	79.8	79.8	82.5	69	68.7	0	1	270	0.00	29.827 
22:30	79.6	79.6	82.2	69	68.5	0	1	270	0.00	29.830 
22:35	79.6	79.6	82.2	69	68.5	0	1	270	0.00	29.830 
22:40	79.4	79.4	82.0	70	68.7	0	1	270	0.00	29.830 
22:45	79.2	79.2	81.7	70	68.5	0	1	270	0.00	29.834 
22:50	79.0	79.0	81.4	70	68.4	0	1	270	0.00	29.834 
22:55	79.0	79.0	81.5	71	68.8	0	1	270	0.00	29.834 
23:00	78.8	78.8	81.2	71	68.6	0	1	270	0.00	29.833 
23:05	78.6	78.6	80.9	71	68.4	0	1	270	0.00	29.833 
23:10	78.5	78.5	80.8	72	68.7	0	1	270	0.00	29.833 
23:15	78.3	78.3	80.5	72	68.5	0	1	270	0.00	29.835 
23:20	78.1	78.1	80.3	73	68.7	0	0	---	0.00	29.835 
23:25	77.9	77.9	80.0	73	68.5	0	1	270	0.00	29.835 
23:30	77.7	77.7	79.7	73	68.3	0	0	---	0.00	29.837 
23:35	77.6	77.6	79.6	74	68.6	0	0	---	0.00	29.837 
23:40	77.6	77.6	79.6	74	68.6	0	0	---	0.00	29.837 
23:45	77.4	77.4	79.3	75	68.8	0	1	270	0.00	29.837 
23:50	77.2	77.2	79.0	75	68.6	0	1	270	0.00	29.837 
23:55	77.0	77.0	78.7	76	68.8	0	1	270	0.00	29.837 

CoCoRaHS
IN-AL-39
A2 Web Hosting
Creative Commons License
GoDaddy
search engine by freefind advanced

loaded 2018-11-17 14:57:13 • last modified 2010-11-18 10:43:29
Privacy PolicyDisclaimer
• wx.awcolley.com is powered by PmWiki v.2002016 •
• all content (unless otherwise noted) © 2018 A W Colley